createdAt,value
2022-11-05T00:01:17.062Z,5.83
2022-11-05T00:02:40.086Z,5.82
2022-11-05T00:04:02.225Z,5.84
2022-11-05T00:05:24.471Z,5.83
2022-11-05T00:06:46.868Z,5.85
2022-11-05T00:08:11.182Z,5.85
2022-11-05T00:09:32.653Z,5.87
2022-11-05T00:10:38.744Z,5.87
2022-11-05T00:12:00.882Z,5.88
2022-11-05T00:13:26.753Z,5.86
2022-11-05T00:14:48.897Z,5.89
2022-11-05T00:16:10.337Z,5.89
2022-11-05T00:17:13.428Z,5.87
2022-11-05T00:18:16.575Z,5.88
2022-11-05T00:19:19.627Z,5.88
2022-11-05T00:20:23.149Z,5.88
2022-11-05T00:21:46.013Z,5.89
2022-11-05T00:23:07.643Z,5.88
2022-11-05T00:24:32.237Z,5.90
2022-11-05T00:25:35.754Z,5.92
2022-11-05T00:26:38.976Z,5.91
2022-11-05T00:27:43.309Z,5.94
2022-11-05T00:28:47.496Z,5.96
2022-11-05T00:29:50.641Z,5.97
2022-11-05T00:30:54.437Z,5.97
2022-11-05T00:31:58.212Z,5.95
2022-11-05T00:33:03.051Z,5.93
2022-11-05T00:34:07.339Z,5.92
2022-11-05T00:35:13.047Z,5.91
2022-11-05T00:36:16.607Z,5.93
2022-11-05T00:37:19.861Z,5.95
2022-11-05T00:38:23.012Z,5.95
2022-11-05T00:39:26.268Z,5.95
2022-11-05T00:40:31.272Z,5.96
2022-11-05T00:41:34.559Z,5.98
2022-11-05T00:42:58.550Z,5.97
2022-11-05T00:44:20.181Z,5.93
2022-11-05T00:45:23.366Z,5.90
2022-11-05T00:46:26.879Z,5.86
2022-11-05T00:47:52.404Z,5.85
2022-11-05T00:49:14.526Z,5.82
2022-11-05T00:50:18.514Z,5.78
2022-11-05T00:51:21.796Z,5.73
2022-11-05T00:52:44.281Z,5.72
2022-11-05T00:53:47.650Z,5.71
2022-11-05T00:54:50.702Z,5.72
2022-11-05T00:55:53.864Z,5.70
2022-11-05T00:57:04.381Z,5.70
2022-11-05T00:58:12.001Z,5.71
2022-11-05T00:59:15.116Z,5.72
2022-11-05T01:00:18.689Z,5.71
2022-11-05T01:01:21.861Z,5.71
2022-11-05T01:02:25.237Z,5.70
2022-11-05T01:03:30.596Z,5.69
2022-11-05T01:04:36.653Z,5.70
2022-11-05T01:05:45.273Z,5.71
2022-11-05T01:06:48.397Z,5.72
2022-11-05T01:07:52.478Z,5.72
2022-11-05T01:08:56.127Z,5.73
2022-11-05T01:10:01.317Z,5.71
2022-11-05T01:11:10.635Z,5.71
2022-11-05T01:12:14.348Z,5.70
2022-11-05T01:13:20.910Z,5.69
2022-11-05T01:14:24.148Z,5.67
2022-11-05T01:15:29.773Z,5.67
2022-11-05T01:16:33.060Z,5.66
2022-11-05T01:17:36.374Z,5.65
2022-11-05T01:18:39.550Z,5.66
2022-11-05T01:19:42.668Z,5.66
2022-11-05T01:20:48.683Z,5.65
2022-11-05T01:21:51.972Z,5.63
2022-11-05T01:22:58.019Z,5.63
2022-11-05T01:24:01.523Z,5.63
2022-11-05T01:25:04.925Z,5.62
2022-11-05T01:26:08.063Z,5.61
2022-11-05T01:27:11.143Z,5.60
2022-11-05T01:28:14.265Z,5.60
2022-11-05T01:29:17.471Z,5.63
2022-11-05T01:30:20.555Z,5.64
2022-11-05T01:31:26.492Z,5.60
2022-11-05T01:32:29.721Z,5.59
2022-11-05T01:33:33.262Z,5.58
2022-11-05T01:34:36.383Z,5.55
2022-11-05T01:35:40.052Z,5.56
2022-11-05T01:36:43.389Z,5.56
2022-11-05T01:37:47.317Z,5.54
2022-11-05T01:38:50.475Z,5.52
2022-11-05T01:39:53.676Z,5.56
2022-11-05T01:40:56.866Z,5.52
2022-11-05T01:42:00.472Z,5.51
2022-11-05T01:43:03.712Z,5.47
2022-11-05T01:44:26.773Z,5.46
2022-11-05T01:45:29.908Z,5.42
2022-11-05T01:46:32.978Z,5.38
2022-11-05T01:47:52.488Z,5.36
2022-11-05T01:49:02.782Z,5.35
2022-11-05T01:50:12.457Z,5.35
2022-11-05T01:51:18.428Z,5.35
2022-11-05T01:52:25.317Z,5.34
2022-11-05T01:53:31.265Z,5.34
2022-11-05T01:54:35.091Z,5.32
2022-11-05T01:55:42.948Z,5.33
2022-11-05T01:56:52.317Z,5.33
2022-11-05T01:57:56.562Z,5.33
2022-11-05T01:59:02.681Z,5.35
2022-11-05T02:00:06.697Z,5.34
2022-11-05T02:01:17.417Z,5.32
2022-11-05T02:02:22.466Z,5.32
2022-11-05T02:03:26.629Z,5.33
2022-11-05T02:04:32.141Z,5.32
2022-11-05T02:05:38.172Z,5.31
2022-11-05T02:06:46.727Z,5.30
2022-11-05T02:07:50.431Z,5.32
2022-11-05T02:08:59.926Z,5.30
2022-11-05T02:10:04.997Z,5.29
2022-11-05T02:11:08.498Z,5.29
2022-11-05T02:12:13.128Z,5.28
2022-11-05T02:13:16.204Z,5.30
2022-11-05T02:14:20.467Z,5.28
2022-11-05T02:15:27.783Z,5.24
2022-11-05T02:16:37.341Z,5.25
2022-11-05T02:18:03.883Z,5.24
2022-11-05T02:19:06.937Z,5.23
2022-11-05T02:20:19.483Z,5.22
2022-11-05T02:21:41.194Z,5.22
2022-11-05T02:23:02.834Z,5.21
2022-11-05T02:24:05.947Z,5.19
2022-11-05T02:25:09.131Z,5.19
2022-11-05T02:26:14.071Z,5.22
2022-11-05T02:27:26.611Z,5.21
2022-11-05T02:28:48.976Z,5.21
2022-11-05T02:29:52.144Z,5.22
2022-11-05T02:31:30.957Z,5.21
2022-11-05T02:32:33.967Z,5.23
2022-11-05T02:33:37.153Z,5.23
2022-11-05T02:34:45.624Z,5.23
2022-11-05T02:36:00.504Z,5.22
2022-11-05T02:37:21.696Z,5.24
2022-11-05T02:38:43.613Z,5.23
2022-11-05T02:39:50.851Z,5.19
2022-11-05T02:41:01.959Z,5.21
2022-11-05T02:42:17.210Z,5.24
2022-11-05T02:43:20.354Z,5.20
2022-11-05T02:44:42.109Z,5.20
2022-11-05T02:45:45.220Z,5.19
2022-11-05T02:46:57.317Z,5.18
2022-11-05T02:48:21.882Z,5.23
2022-11-05T02:49:48.223Z,5.20
2022-11-05T02:51:03.272Z,5.19
2022-11-05T02:52:15.353Z,5.17
2022-11-05T02:53:37.171Z,5.17
2022-11-05T02:54:47.586Z,5.18
2022-11-05T02:55:59.546Z,5.17
2022-11-05T02:57:05.467Z,5.17
2022-11-05T02:58:09.152Z,5.16
2022-11-05T02:59:12.491Z,5.16
2022-11-05T03:00:34.391Z,5.15
2022-11-05T03:01:38.331Z,5.15
2022-11-05T03:02:42.579Z,5.14
2022-11-05T03:03:47.488Z,5.13
2022-11-05T03:04:56.460Z,5.13
2022-11-05T03:06:18.374Z,5.13
2022-11-05T03:07:37.452Z,5.14
2022-11-05T03:08:43.483Z,5.15
2022-11-05T03:09:50.050Z,5.15
2022-11-05T03:10:59.828Z,5.15
2022-11-05T03:12:08.823Z,5.10
2022-11-05T03:13:19.731Z,5.11
2022-11-05T03:14:27.221Z,5.11
2022-11-05T03:15:49.548Z,5.12
2022-11-05T03:17:00.250Z,5.11
2022-11-05T03:18:11.589Z,5.10
2022-11-05T03:19:20.728Z,5.11
2022-11-05T03:20:44.112Z,5.10
2022-11-05T03:21:53.837Z,5.10
2022-11-05T03:23:06.127Z,5.10
2022-11-05T03:24:15.866Z,5.10
2022-11-05T03:25:21.531Z,5.08
2022-11-05T03:26:24.574Z,5.06
2022-11-05T03:27:30.956Z,5.05
2022-11-05T03:28:35.773Z,5.03
2022-11-05T03:29:43.881Z,5.02
2022-11-05T03:30:48.569Z,5.02
2022-11-05T03:31:53.376Z,5.03
2022-11-05T03:32:59.698Z,5.02
2022-11-05T03:34:04.697Z,4.99
2022-11-05T03:35:10.960Z,5.02
2022-11-05T03:36:19.759Z,5.02
2022-11-05T03:37:25.477Z,5.03
2022-11-05T03:38:31.356Z,5.02
2022-11-05T03:39:40.076Z,5.03
2022-11-05T03:40:45.580Z,5.04
2022-11-05T03:41:52.534Z,5.06
2022-11-05T03:42:58.434Z,5.05
2022-11-05T03:44:03.608Z,5.05
2022-11-05T03:45:10.771Z,5.06
2022-11-05T03:46:23.371Z,5.06
2022-11-05T03:47:32.929Z,5.06
2022-11-05T03:48:39.572Z,5.04
2022-11-05T03:49:53.965Z,5.06
2022-11-05T03:50:59.772Z,5.08
2022-11-05T03:52:14.596Z,5.09
2022-11-05T03:53:22.266Z,5.10
2022-11-05T03:54:25.460Z,5.08
2022-11-05T03:55:32.864Z,5.09
2022-11-05T03:56:39.825Z,5.07
2022-11-05T03:57:47.436Z,5.06
2022-11-05T03:58:56.030Z,5.06
2022-11-05T04:00:01.940Z,5.05
2022-11-05T04:01:14.970Z,5.03
2022-11-05T04:02:19.422Z,5.03
2022-11-05T04:03:22.658Z,5.01
2022-11-05T04:04:25.826Z,4.98
2022-11-05T04:05:29.054Z,4.99
2022-11-05T04:06:50.996Z,4.97
2022-11-05T04:08:14.441Z,4.94
2022-11-05T04:09:36.503Z,4.95
2022-11-05T04:11:10.688Z,4.96
2022-11-05T04:12:32.468Z,4.96
2022-11-05T04:13:36.067Z,4.97
2022-11-05T04:14:39.855Z,4.98
2022-11-05T04:16:01.888Z,4.97
2022-11-05T04:17:08.800Z,4.99
2022-11-05T04:18:11.885Z,5.01
2022-11-05T04:19:34.991Z,5.00
2022-11-05T04:21:13.639Z,5.02
2022-11-05T04:22:35.755Z,5.02
2022-11-05T04:23:57.528Z,5.01
2022-11-05T04:25:00.679Z,5.03
2022-11-05T04:26:03.794Z,5.05
2022-11-05T04:27:11.340Z,5.06
2022-11-05T04:28:14.581Z,5.07
2022-11-05T04:29:36.395Z,5.08
2022-11-05T04:30:42.155Z,5.13
2022-11-05T04:31:45.336Z,5.14
2022-11-05T04:32:57.230Z,5.15
2022-11-05T04:34:00.347Z,5.16
2022-11-05T04:35:03.518Z,5.17
2022-11-05T04:36:09.778Z,5.20
2022-11-05T04:37:13.057Z,5.21
2022-11-05T04:38:18.187Z,5.22
2022-11-05T04:39:21.782Z,5.23
2022-11-05T04:40:27.661Z,5.24
2022-11-05T04:41:30.888Z,5.23
2022-11-05T04:42:34.942Z,5.23
2022-11-05T04:43:38.101Z,5.24
2022-11-05T04:44:41.172Z,5.24
2022-11-05T04:45:44.836Z,5.22
2022-11-05T04:46:48.094Z,5.23
2022-11-05T04:47:51.274Z,5.22
2022-11-05T04:48:54.450Z,5.20
2022-11-05T04:49:57.637Z,5.19
2022-11-05T04:51:00.740Z,5.19
2022-11-05T04:52:04.206Z,5.19
2022-11-05T04:53:07.440Z,5.17
2022-11-05T04:54:10.601Z,5.18
2022-11-05T04:55:16.302Z,5.17
2022-11-05T04:56:21.018Z,5.14
2022-11-05T04:57:24.253Z,5.12
2022-11-05T04:58:28.131Z,5.10
2022-11-05T04:59:31.226Z,5.11
2022-11-05T05:00:34.486Z,5.06
2022-11-05T05:01:37.817Z,5.07
2022-11-05T05:02:41.760Z,5.07
2022-11-05T05:03:46.993Z,5.09
2022-11-05T05:04:50.933Z,5.09
2022-11-05T05:05:54.240Z,5.00
2022-11-05T05:06:58.781Z,5.09
2022-11-05T05:08:02.466Z,5.06
2022-11-05T05:09:05.563Z,5.08
2022-11-05T05:10:09.987Z,5.09
2022-11-05T05:11:14.505Z,5.09
2022-11-05T05:12:22.927Z,5.09
2022-11-05T05:13:27.172Z,5.10
2022-11-05T05:14:30.368Z,5.11
2022-11-05T05:15:33.874Z,5.11
2022-11-05T05:16:39.952Z,5.10
2022-11-05T05:17:43.161Z,5.10
2022-11-05T05:18:46.732Z,5.10
2022-11-05T05:20:09.051Z,5.08
2022-11-05T05:21:30.762Z,5.09
2022-11-05T05:22:35.131Z,5.04
2022-11-05T05:23:38.318Z,4.99
2022-11-05T05:24:42.572Z,5.00
2022-11-05T05:25:45.776Z,4.98
2022-11-05T05:26:49.985Z,4.96
2022-11-05T05:27:53.281Z,4.96
2022-11-05T05:28:56.842Z,4.94
2022-11-05T05:30:00.481Z,4.92
2022-11-05T05:31:04.006Z,4.88
2022-11-05T05:32:07.248Z,4.86
2022-11-05T05:33:10.822Z,4.86
2022-11-05T05:34:14.850Z,4.88
2022-11-05T05:35:17.981Z,4.87
2022-11-05T05:36:21.813Z,4.87
2022-11-05T05:37:24.839Z,4.89
2022-11-05T05:38:28.473Z,4.88
2022-11-05T05:39:33.621Z,4.91
2022-11-05T05:40:37.039Z,4.92
2022-11-05T05:41:40.238Z,4.93
2022-11-05T05:42:43.777Z,4.93
2022-11-05T05:43:47.068Z,4.84
2022-11-05T05:44:50.338Z,4.98
2022-11-05T05:45:53.466Z,5.00
2022-11-05T05:46:56.551Z,4.97
2022-11-05T05:47:59.637Z,4.95
2022-11-05T05:49:05.486Z,4.93
2022-11-05T05:50:12.638Z,4.92
2022-11-05T05:51:18.523Z,4.92
2022-11-05T05:52:21.671Z,4.93
2022-11-05T05:53:24.910Z,4.93
2022-11-05T05:54:32.892Z,4.98
2022-11-05T05:55:37.476Z,5.00
2022-11-05T05:56:42.673Z,5.00
2022-11-05T05:57:50.261Z,5.02
2022-11-05T05:58:53.451Z,5.03
2022-11-05T05:59:56.576Z,5.03
2022-11-05T06:01:03.768Z,5.05
2022-11-05T06:02:07.117Z,5.05
2022-11-05T06:03:10.703Z,5.07
2022-11-05T06:04:16.966Z,5.07
2022-11-05T06:05:20.061Z,5.06
2022-11-05T06:06:25.872Z,5.04
2022-11-05T06:07:31.850Z,5.02
2022-11-05T06:08:39.347Z,5.02
2022-11-05T06:09:42.491Z,5.01
2022-11-05T06:10:52.094Z,5.00
2022-11-05T06:11:55.586Z,5.02
2022-11-05T06:13:02.199Z,5.01
2022-11-05T06:14:05.454Z,5.01
2022-11-05T06:15:08.688Z,5.01
2022-11-05T06:16:12.018Z,5.00
2022-11-05T06:17:21.518Z,5.00
2022-11-05T06:18:25.890Z,5.01
2022-11-05T06:19:29.455Z,4.98
2022-11-05T06:20:32.720Z,5.00
2022-11-05T06:21:35.977Z,5.00
2022-11-05T06:22:39.347Z,5.00
2022-11-05T06:23:43.300Z,4.99
2022-11-05T06:24:46.453Z,5.02
2022-11-05T06:25:52.356Z,5.04
2022-11-05T06:26:55.805Z,5.05
2022-11-05T06:28:01.804Z,5.07
2022-11-05T06:29:04.937Z,5.09
2022-11-05T06:30:08.486Z,5.10
2022-11-05T06:31:12.304Z,5.10
2022-11-05T06:32:16.006Z,5.11
2022-11-05T06:33:20.161Z,5.12
2022-11-05T06:34:23.271Z,5.13
2022-11-05T06:35:29.260Z,5.14
2022-11-05T06:36:32.503Z,5.15
2022-11-05T06:37:36.225Z,5.16
2022-11-05T06:38:41.908Z,5.17
2022-11-05T06:39:45.095Z,5.18
2022-11-05T06:40:51.489Z,5.18
2022-11-05T06:42:17.166Z,5.18
2022-11-05T06:43:17.798Z,5.18
2022-11-05T06:44:23.571Z,5.20
2022-11-05T06:45:27.173Z,5.19
2022-11-05T06:46:33.096Z,5.21
2022-11-05T06:47:36.754Z,5.21
2022-11-05T06:48:39.957Z,5.22
2022-11-05T06:49:43.150Z,5.23
2022-11-05T06:50:46.829Z,5.25
2022-11-05T06:51:50.535Z,5.27
2022-11-05T06:52:57.198Z,5.28
2022-11-05T06:54:00.254Z,5.30
2022-11-05T06:55:03.741Z,5.30
2022-11-05T06:56:08.009Z,5.34
2022-11-05T06:57:11.945Z,5.37
2022-11-05T06:58:15.781Z,5.40
2022-11-05T06:59:18.982Z,5.44
2022-11-05T07:00:22.511Z,5.46
2022-11-05T07:01:25.907Z,5.48
2022-11-05T07:02:29.185Z,5.49
2022-11-05T07:03:32.293Z,5.54
2022-11-05T07:04:43.117Z,5.53
2022-11-05T07:05:48.260Z,5.53
2022-11-05T07:06:51.516Z,5.58
2022-11-05T07:07:54.627Z,5.61
2022-11-05T07:08:57.741Z,5.62
2022-11-05T07:10:00.795Z,5.65
2022-11-05T07:11:04.624Z,5.67
2022-11-05T07:12:07.849Z,5.69
2022-11-05T07:13:12.133Z,5.70
2022-11-05T07:14:15.866Z,5.73
2022-11-05T07:15:19.040Z,5.72
2022-11-05T07:16:22.149Z,5.72
2022-11-05T07:17:28.680Z,5.77
2022-11-05T07:18:33.531Z,5.80
2022-11-05T07:19:36.632Z,5.83
2022-11-05T07:20:40.158Z,5.87
2022-11-05T07:21:43.266Z,5.91
2022-11-05T07:22:46.439Z,5.95
2022-11-05T07:23:49.910Z,5.99
2022-11-05T07:24:53.124Z,6.02
2022-11-05T07:25:56.199Z,6.02
2022-11-05T07:26:59.373Z,6.01
2022-11-05T07:28:03.441Z,6.04
2022-11-05T07:29:06.552Z,6.03
2022-11-05T07:30:10.138Z,6.00
2022-11-05T07:31:14.270Z,6.00
2022-11-05T07:32:17.489Z,5.98
2022-11-05T07:33:23.385Z,5.97
2022-11-05T07:34:26.500Z,5.95
2022-11-05T07:35:29.792Z,5.94
2022-11-05T07:36:32.902Z,5.97
2022-11-05T07:37:43.065Z,5.99
2022-11-05T07:38:47.552Z,6.00
2022-11-05T07:39:50.845Z,6.02
2022-11-05T07:40:54.747Z,6.05
2022-11-05T07:41:58.287Z,6.08
2022-11-05T07:43:06.819Z,6.14
2022-11-05T07:44:09.986Z,6.22
2022-11-05T07:45:13.290Z,6.29
2022-11-05T07:46:16.570Z,6.38
2022-11-05T07:47:19.770Z,6.46
2022-11-05T07:48:23.001Z,6.56
2022-11-05T07:49:26.369Z,6.62
2022-11-05T07:50:31.493Z,6.72
2022-11-05T07:51:34.817Z,6.81
2022-11-05T07:52:38.394Z,6.91
2022-11-05T07:53:46.331Z,7.03
2022-11-05T07:54:49.850Z,7.15
2022-11-05T07:55:53.116Z,7.26
2022-11-05T07:56:56.256Z,7.36
2022-11-05T07:57:59.353Z,7.48
2022-11-05T07:59:02.746Z,7.54
2022-11-05T08:00:06.421Z,7.65
2022-11-05T08:01:15.579Z,7.73
2022-11-05T08:02:19.233Z,7.83
2022-11-05T08:03:22.628Z,7.91
2022-11-05T08:04:25.979Z,8.01
2022-11-05T08:05:30.240Z,8.08
2022-11-05T08:06:33.392Z,8.19
2022-11-05T08:07:36.686Z,8.30
2022-11-05T08:08:40.258Z,8.40
2022-11-05T08:09:43.421Z,8.46
2022-11-05T08:10:46.826Z,8.53
2022-11-05T08:11:53.290Z,8.58
2022-11-05T08:12:59.350Z,8.60
2022-11-05T08:14:02.438Z,8.64
2022-11-05T08:15:15.214Z,8.68
2022-11-05T08:16:18.880Z,8.65
2022-11-05T08:17:22.469Z,8.56
2022-11-05T08:18:31.965Z,8.52
2022-11-05T08:19:35.105Z,8.50
2022-11-05T08:20:38.737Z,8.53
2022-11-05T08:21:41.920Z,8.54
2022-11-05T08:22:45.763Z,8.49
2022-11-05T08:23:49.071Z,8.53
2022-11-05T08:24:54.550Z,8.56
2022-11-05T08:25:58.185Z,8.58
2022-11-05T08:27:04.036Z,8.64
2022-11-05T08:28:08.862Z,8.70
2022-11-05T08:29:12.156Z,8.73
2022-11-05T08:30:16.433Z,8.75
2022-11-05T08:31:19.741Z,8.78
2022-11-05T08:32:23.104Z,8.83
2022-11-05T08:33:29.895Z,8.90
2022-11-05T08:34:33.009Z,8.92
2022-11-05T08:35:37.221Z,8.97
2022-11-05T08:36:42.240Z,9.06
2022-11-05T08:37:45.453Z,9.13
2022-11-05T08:38:51.819Z,9.20
2022-11-05T08:39:55.187Z,9.21
2022-11-05T08:40:58.724Z,9.25
2022-11-05T08:42:02.009Z,9.37
2022-11-05T08:43:07.001Z,9.40
2022-11-05T08:44:10.286Z,9.46
2022-11-05T08:45:13.415Z,9.52
2022-11-05T08:46:16.713Z,9.58
2022-11-05T08:47:19.932Z,9.63
2022-11-05T08:48:23.139Z,9.68
2022-11-05T08:49:26.291Z,9.71
2022-11-05T08:50:29.890Z,9.78
2022-11-05T08:51:33.036Z,9.86
2022-11-05T08:52:41.963Z,9.99
2022-11-05T08:53:45.338Z,10.06
2022-11-05T08:54:48.633Z,10.03
2022-11-05T08:55:53.053Z,10.09
2022-11-05T08:56:56.210Z,10.09
2022-11-05T08:58:00.656Z,10.15
2022-11-05T08:59:04.020Z,10.20
2022-11-05T09:00:07.732Z,10.31
2022-11-05T09:01:10.997Z,10.50
2022-11-05T09:02:14.374Z,10.68
2022-11-05T09:03:17.574Z,10.84
2022-11-05T09:04:23.129Z,10.99
2022-11-05T09:05:26.338Z,11.05
2022-11-05T09:06:29.498Z,11.10
2022-11-05T09:07:33.011Z,11.11
2022-11-05T09:08:38.356Z,11.14
2022-11-05T09:09:41.936Z,11.12
2022-11-05T09:10:45.975Z,11.11
2022-11-05T09:12:11.087Z,11.08
2022-11-05T09:13:18.302Z,11.15
2022-11-05T09:14:22.396Z,11.33
2022-11-05T09:15:25.711Z,11.45
2022-11-05T09:16:34.491Z,11.51
2022-11-05T09:17:37.876Z,11.61
2022-11-05T09:18:44.020Z,11.70
2022-11-05T09:19:50.197Z,11.83
2022-11-05T09:20:53.397Z,12.00
2022-11-05T09:21:58.231Z,12.09
2022-11-05T09:23:01.799Z,12.11
2022-11-05T09:24:05.066Z,12.20
2022-11-05T09:25:08.484Z,12.39
2022-11-05T09:26:12.206Z,12.43
2022-11-05T09:27:15.543Z,12.57
2022-11-05T09:28:20.665Z,12.64
2022-11-05T09:29:23.768Z,12.69
2022-11-05T09:30:28.116Z,12.75
2022-11-05T09:31:31.209Z,12.82
2022-11-05T09:32:35.765Z,12.79
2022-11-05T09:33:40.115Z,12.75
2022-11-05T09:34:45.102Z,12.72
2022-11-05T09:35:48.601Z,12.66
2022-11-05T09:36:51.785Z,12.67
2022-11-05T09:38:00.787Z,12.69
2022-11-05T09:39:04.458Z,12.71
2022-11-05T09:40:07.853Z,12.74
2022-11-05T09:41:11.005Z,12.86
2022-11-05T09:42:17.656Z,13.02
2022-11-05T09:43:26.080Z,13.14
2022-11-05T09:44:38.607Z,13.18
2022-11-05T09:45:41.764Z,13.15
2022-11-05T09:46:50.368Z,13.16
2022-11-05T09:47:55.838Z,13.27
2022-11-05T09:49:07.020Z,13.35
2022-11-05T09:50:15.428Z,13.36
2022-11-05T09:51:24.066Z,13.44
2022-11-05T09:52:28.895Z,13.28
2022-11-05T09:53:32.233Z,13.18
2022-11-05T09:54:35.442Z,13.12
2022-11-05T09:55:43.715Z,13.20
2022-11-05T09:56:46.860Z,13.25
2022-11-05T09:57:54.995Z,13.33
2022-11-05T09:59:14.564Z,13.47
2022-11-05T10:00:18.191Z,13.71
2022-11-05T10:01:31.209Z,13.82
2022-11-05T10:02:38.211Z,13.80
2022-11-05T10:03:47.225Z,13.82
2022-11-05T10:04:53.165Z,13.82
2022-11-05T10:06:00.723Z,13.82
2022-11-05T10:07:04.809Z,13.82
2022-11-05T10:08:13.479Z,13.81
2022-11-05T10:09:28.389Z,13.89
2022-11-05T10:10:40.888Z,13.88
2022-11-05T10:11:46.921Z,13.84
2022-11-05T10:12:52.879Z,13.82
2022-11-05T10:14:02.505Z,13.78
2022-11-05T10:15:15.755Z,13.75
2022-11-05T10:16:21.659Z,13.70
2022-11-05T10:17:26.492Z,13.68
2022-11-05T10:18:34.794Z,13.59
2022-11-05T10:19:46.293Z,13.54
2022-11-05T10:20:49.991Z,13.51
2022-11-05T10:22:14.040Z,13.34
2022-11-05T10:23:18.934Z,13.33
2022-11-05T10:24:22.159Z,13.31
2022-11-05T10:25:27.935Z,13.21
2022-11-05T10:26:33.869Z,13.18
2022-11-05T10:27:37.878Z,13.16
2022-11-05T10:28:41.385Z,13.16
2022-11-05T10:29:45.495Z,13.17
2022-11-05T10:30:51.802Z,13.17
2022-11-05T10:31:57.765Z,13.19
2022-11-05T10:33:04.057Z,13.21
2022-11-05T10:34:08.659Z,13.23
2022-11-05T10:35:19.250Z,13.24
2022-11-05T10:36:35.294Z,13.22
2022-11-05T10:37:41.052Z,13.18
2022-11-05T10:38:44.486Z,13.14
2022-11-05T10:39:48.960Z,13.09
2022-11-05T10:41:04.875Z,13.05
2022-11-05T10:42:16.048Z,13.03
2022-11-05T10:43:24.226Z,13.05
2022-11-05T10:44:30.321Z,13.09
2022-11-05T10:45:39.490Z,13.12
2022-11-05T10:46:48.629Z,13.18
2022-11-05T10:48:01.073Z,13.21
2022-11-05T10:49:14.851Z,13.22
2022-11-05T10:50:24.090Z,13.22
2022-11-05T10:51:27.810Z,13.22
2022-11-05T10:52:39.660Z,13.17
2022-11-05T10:53:50.393Z,13.10
2022-11-05T10:54:56.135Z,13.14
2022-11-05T10:55:59.576Z,13.12
2022-11-05T10:57:22.901Z,13.14
2022-11-05T10:58:29.161Z,13.19
2022-11-05T10:59:32.281Z,13.32
2022-11-05T11:00:37.147Z,13.45
2022-11-05T11:01:40.979Z,13.48
2022-11-05T11:02:46.876Z,13.48
2022-11-05T11:04:03.769Z,13.46
2022-11-05T11:05:08.997Z,13.48
2022-11-05T11:06:26.009Z,13.47
2022-11-05T11:07:29.308Z,13.47
2022-11-05T11:08:35.835Z,13.43
2022-11-05T11:09:40.503Z,13.41
2022-11-05T11:10:51.941Z,13.39
2022-11-05T11:12:15.432Z,13.37
2022-11-05T11:13:24.055Z,13.38
2022-11-05T11:14:27.724Z,13.39
2022-11-05T11:15:35.260Z,13.41
2022-11-05T11:16:40.333Z,13.41
2022-11-05T11:17:43.818Z,13.48
2022-11-05T11:18:47.177Z,13.47
2022-11-05T11:19:51.540Z,13.47
2022-11-05T11:21:04.560Z,13.41
2022-11-05T11:22:12.603Z,13.36
2022-11-05T11:23:16.806Z,13.27
2022-11-05T11:24:21.436Z,13.22
2022-11-05T11:25:26.719Z,13.16
2022-11-05T11:26:32.487Z,13.08
2022-11-05T11:27:37.892Z,13.01
2022-11-05T11:28:45.862Z,12.96
2022-11-05T11:29:51.239Z,12.89
2022-11-05T11:31:14.263Z,12.83
2022-11-05T11:32:22.256Z,12.78
2022-11-05T11:33:28.263Z,12.76
2022-11-05T11:34:34.168Z,12.74
2022-11-05T11:35:45.942Z,12.73
2022-11-05T11:36:50.743Z,12.70
2022-11-05T11:37:55.604Z,12.72
2022-11-05T11:39:00.238Z,12.66
2022-11-05T11:40:14.286Z,12.59
2022-11-05T11:41:28.146Z,12.54
2022-11-05T11:42:33.074Z,12.55
2022-11-05T11:43:39.134Z,12.58
2022-11-05T11:44:44.907Z,12.64
2022-11-05T11:45:53.198Z,12.72
2022-11-05T11:47:02.656Z,12.82
2022-11-05T11:48:06.792Z,12.90
2022-11-05T11:49:29.896Z,12.95
2022-11-05T11:50:38.000Z,13.00
2022-11-05T11:51:49.519Z,13.05
2022-11-05T11:52:53.678Z,13.07
2022-11-05T11:53:58.763Z,13.06
2022-11-05T11:55:08.291Z,13.05
2022-11-05T11:56:15.985Z,13.07
2022-11-05T11:57:21.925Z,13.06
2022-11-05T11:58:36.178Z,13.07
2022-11-05T12:00:07.360Z,13.01
2022-11-05T12:01:07.070Z,12.96
2022-11-05T12:02:22.228Z,12.93
2022-11-05T12:03:31.926Z,12.92
2022-11-05T12:05:04.729Z,12.88
2022-11-05T12:06:16.833Z,12.92
2022-11-05T12:07:32.882Z,13.14
2022-11-05T12:08:45.259Z,13.30
2022-11-05T12:09:54.672Z,13.40
2022-11-05T12:11:11.337Z,13.50
2022-11-05T12:12:15.687Z,13.54
2022-11-05T12:13:18.776Z,13.50
2022-11-05T12:14:32.652Z,13.36
2022-11-05T12:15:55.162Z,13.18
2022-11-05T12:17:01.342Z,13.04
2022-11-05T12:18:19.733Z,12.94
2022-11-05T12:19:41.581Z,12.77
2022-11-05T12:20:48.484Z,12.69
2022-11-05T12:21:53.544Z,12.62
2022-11-05T12:22:56.831Z,12.49
2022-11-05T12:23:59.883Z,12.34
2022-11-05T12:25:15.770Z,12.22
2022-11-05T12:26:30.989Z,12.07
2022-11-05T12:27:36.802Z,12.02
2022-11-05T12:29:17.262Z,11.96
2022-11-05T12:30:19.079Z,11.92
2022-11-05T12:32:00.859Z,11.87
2022-11-05T12:33:07.289Z,11.76
2022-11-05T12:34:19.445Z,11.69
2022-11-05T12:35:25.427Z,11.58
2022-11-05T12:36:39.718Z,11.50
2022-11-05T12:37:48.848Z,11.44
2022-11-05T12:38:52.358Z,11.39
2022-11-05T12:40:14.235Z,11.35
2022-11-05T12:41:18.862Z,11.29
2022-11-05T12:42:40.755Z,11.20
2022-11-05T12:43:44.130Z,11.06
2022-11-05T12:44:47.790Z,10.97
2022-11-05T12:45:53.875Z,10.89
2022-11-05T12:46:57.073Z,10.76
2022-11-05T12:48:03.310Z,10.59
2022-11-05T12:49:32.796Z,10.50
2022-11-05T12:50:38.702Z,10.36
2022-11-05T12:51:52.290Z,10.20
2022-11-05T12:52:56.050Z,10.09
2022-11-05T12:54:17.213Z,10.02
2022-11-05T12:55:25.042Z,10.00
2022-11-05T12:56:28.160Z,9.87
2022-11-05T12:57:33.353Z,9.83
2022-11-05T12:58:49.173Z,9.81
2022-11-05T13:00:02.510Z,9.76
2022-11-05T13:01:11.008Z,9.68
2022-11-05T13:02:20.984Z,9.67
2022-11-05T13:03:26.977Z,9.63
2022-11-05T13:04:37.897Z,9.60
2022-11-05T13:05:47.848Z,9.63
2022-11-05T13:06:53.683Z,9.61
2022-11-05T13:07:59.864Z,9.57
2022-11-05T13:09:08.120Z,9.56
2022-11-05T13:10:20.909Z,9.55
2022-11-05T13:11:28.295Z,9.54
2022-11-05T13:12:33.685Z,9.48
2022-11-05T13:13:39.059Z,9.44
2022-11-05T13:14:54.641Z,9.43
2022-11-05T13:16:12.744Z,9.39
2022-11-05T13:17:18.812Z,9.37
2022-11-05T13:18:25.867Z,9.37
2022-11-05T13:19:33.332Z,9.35
2022-11-05T13:20:47.074Z,9.33
2022-11-05T13:22:08.159Z,9.33
2022-11-05T13:23:11.611Z,9.48
2022-11-05T13:24:21.358Z,9.58
2022-11-05T13:25:35.403Z,9.73
2022-11-05T13:26:44.710Z,9.78
2022-11-05T13:28:01.108Z,9.91
2022-11-05T13:29:09.749Z,9.90
2022-11-05T13:30:15.479Z,9.91
2022-11-05T13:31:27.241Z,9.85
2022-11-05T13:32:33.226Z,9.85
2022-11-05T13:33:40.505Z,9.81
2022-11-05T13:34:45.510Z,9.83
2022-11-05T13:36:17.816Z,9.82
2022-11-05T13:37:43.220Z,9.90
2022-11-05T13:39:07.206Z,9.92
2022-11-05T13:40:12.620Z,9.97
2022-11-05T13:41:26.089Z,10.05
2022-11-05T13:42:49.764Z,10.22
2022-11-05T13:44:01.914Z,10.44
2022-11-05T13:45:13.621Z,10.54
2022-11-05T13:46:22.962Z,10.56
2022-11-05T13:47:44.974Z,10.54
2022-11-05T13:49:06.734Z,10.53
2022-11-05T13:50:17.032Z,10.43
2022-11-05T13:51:23.191Z,10.27
2022-11-05T13:52:46.145Z,10.15
2022-11-05T13:53:52.544Z,9.97
2022-11-05T13:55:13.975Z,9.85
2022-11-05T13:56:32.479Z,9.75
2022-11-05T13:57:50.797Z,9.62
2022-11-05T13:59:04.522Z,9.55
2022-11-05T14:00:30.905Z,9.49
2022-11-05T14:01:46.127Z,9.48
2022-11-05T14:02:49.496Z,9.43
2022-11-05T14:03:55.607Z,9.41
2022-11-05T14:05:01.599Z,9.38
2022-11-05T14:06:07.081Z,9.35
2022-11-05T14:07:13.309Z,9.34
2022-11-05T14:08:20.783Z,9.29
2022-11-05T14:09:26.557Z,9.22
2022-11-05T14:10:37.812Z,9.14
2022-11-05T14:11:43.098Z,9.09
2022-11-05T14:12:51.159Z,9.07
2022-11-05T14:13:58.905Z,9.07
2022-11-05T14:15:18.888Z,9.06
2022-11-05T14:16:25.407Z,9.07
2022-11-05T14:17:32.060Z,9.06
2022-11-05T14:18:46.292Z,9.00
2022-11-05T14:20:07.686Z,9.00
2022-11-05T14:21:28.146Z,8.96
2022-11-05T14:22:31.389Z,8.86
2022-11-05T14:23:40.141Z,8.86
2022-11-05T14:25:11.547Z,8.81
2022-11-05T14:26:19.130Z,8.76
2022-11-05T14:27:32.739Z,8.74
2022-11-05T14:28:35.842Z,8.70
2022-11-05T14:29:43.038Z,8.70
2022-11-05T14:30:47.188Z,8.71
2022-11-05T14:32:08.284Z,8.69
2022-11-05T14:33:15.107Z,8.61
2022-11-05T14:34:22.080Z,8.58
2022-11-05T14:35:36.983Z,8.57
2022-11-05T14:36:46.688Z,8.58
2022-11-05T14:37:54.220Z,8.56
2022-11-05T14:39:17.524Z,8.58
2022-11-05T14:40:40.353Z,8.55
2022-11-05T14:42:02.646Z,8.58
2022-11-05T14:43:09.009Z,8.59
2022-11-05T14:44:12.606Z,8.57
2022-11-05T14:45:34.474Z,8.49
2022-11-05T14:46:47.731Z,8.47
2022-11-05T14:47:54.527Z,8.46
2022-11-05T14:49:05.194Z,8.48
2022-11-05T14:50:25.701Z,8.51
2022-11-05T14:51:33.032Z,8.54
2022-11-05T14:52:37.662Z,8.56
2022-11-05T14:53:40.933Z,8.58
2022-11-05T14:54:47.028Z,8.58
2022-11-05T14:55:57.706Z,8.58